createdAt,value
2022-12-18T00:02:24.413Z,102887.34
2022-12-18T00:04:55.692Z,102890.75
2022-12-18T00:07:26.742Z,102889.41
2022-12-18T00:09:59.365Z,102906.34
2022-12-18T00:12:32.930Z,102904.91
2022-12-18T00:15:04.243Z,102904.97
2022-12-18T00:17:35.231Z,102906.75
2022-12-18T00:20:09.012Z,102903.44
2022-12-18T00:22:40.117Z,102897.09
2022-12-18T00:25:12.072Z,102902.94
2022-12-18T00:27:45.512Z,102900.63
2022-12-18T00:30:17.020Z,102899.94
2022-12-18T00:32:50.375Z,102901.09
2022-12-18T00:35:21.929Z,102902.84
2022-12-18T00:37:55.036Z,102893.81
2022-12-18T00:40:26.555Z,102894.31
2022-12-18T00:42:58.544Z,102889.03
2022-12-18T00:45:37.196Z,102890.66
2022-12-18T00:48:13.823Z,102888.84
2022-12-18T00:50:45.419Z,102895.97
2022-12-18T00:53:16.852Z,102887.25
2022-12-18T00:55:49.487Z,102893.25
2022-12-18T00:58:23.334Z,102888.22
2022-12-18T01:00:54.935Z,102877.78
2022-12-18T01:03:26.242Z,102884.53
2022-12-18T01:05:57.858Z,102895.56
2022-12-18T01:08:29.305Z,102896.00
2022-12-18T01:11:00.810Z,102897.59
2022-12-18T01:13:34.661Z,102901.75
2022-12-18T01:16:06.494Z,102898.88
2022-12-18T01:18:37.795Z,102906.88
2022-12-18T01:21:11.290Z,102912.09
2022-12-18T01:23:42.540Z,102911.09
2022-12-18T01:26:18.040Z,102922.16
2022-12-18T01:28:53.160Z,102917.00
2022-12-18T01:31:26.720Z,102923.25
2022-12-18T01:33:59.858Z,102918.88
2022-12-18T01:36:32.942Z,102917.66
2022-12-18T01:39:05.113Z,102920.44
2022-12-18T01:41:51.518Z,102917.81
2022-12-18T01:45:04.866Z,102926.34
2022-12-18T01:47:48.939Z,102929.56
2022-12-18T01:50:23.673Z,102920.66
2022-12-18T01:52:59.311Z,102932.91
2022-12-18T01:55:33.523Z,102929.84
2022-12-18T01:58:05.730Z,102934.59
2022-12-18T02:00:37.843Z,102935.50
2022-12-18T02:03:12.358Z,102928.91
2022-12-18T02:05:50.546Z,102928.84
2022-12-18T02:08:26.134Z,102925.47
2022-12-18T02:11:07.417Z,102927.09
2022-12-18T02:13:50.385Z,102934.81
2022-12-18T02:16:28.516Z,102934.22
2022-12-18T02:19:10.231Z,102937.38
2022-12-18T02:21:52.064Z,102935.88
2022-12-18T02:24:33.710Z,102937.53
2022-12-18T02:27:09.915Z,102929.75
2022-12-18T02:29:50.565Z,102938.50
2022-12-18T02:32:31.015Z,102941.38
2022-12-18T02:35:03.593Z,102941.41
2022-12-18T02:37:38.963Z,102948.25
2022-12-18T02:40:13.397Z,102958.63
2022-12-18T02:42:46.908Z,102956.38
2022-12-18T02:45:18.363Z,102957.41
2022-12-18T02:47:52.674Z,102957.31
2022-12-18T02:50:29.678Z,102955.63
2022-12-18T02:53:15.076Z,102961.94
2022-12-18T02:55:57.658Z,102957.63
2022-12-18T02:58:39.682Z,102956.84
2022-12-18T03:01:19.236Z,102953.97
2022-12-18T03:03:55.996Z,102954.88
2022-12-18T03:06:32.000Z,102951.28
2022-12-18T03:09:10.078Z,102950.25
2022-12-18T03:12:00.586Z,102953.75
2022-12-18T03:14:38.165Z,102960.66
2022-12-18T03:17:15.721Z,102967.47
2022-12-18T03:19:50.271Z,102957.13
2022-12-18T03:22:23.710Z,102958.09
2022-12-18T03:24:57.430Z,102952.84
2022-12-18T03:27:32.329Z,102957.88
2022-12-18T03:30:11.552Z,102961.50
2022-12-18T03:32:48.067Z,102959.84
2022-12-18T03:35:25.519Z,102964.13
2022-12-18T03:37:57.609Z,102960.91
2022-12-18T03:40:35.589Z,102962.13
2022-12-18T03:43:14.520Z,102951.53
2022-12-18T03:45:56.261Z,102955.84
2022-12-18T03:48:36.709Z,102961.06
2022-12-18T03:51:14.001Z,102960.38
2022-12-18T03:53:52.959Z,102959.28
2022-12-18T03:56:26.957Z,102961.91
2022-12-18T03:59:01.782Z,102962.03
2022-12-18T04:01:39.024Z,102967.47
2022-12-18T04:04:14.460Z,102963.16
2022-12-18T04:06:47.466Z,102971.88
2022-12-18T04:09:19.742Z,102970.31
2022-12-18T04:11:51.528Z,102966.81
2022-12-18T04:14:23.016Z,102960.56
2022-12-18T04:16:57.030Z,102976.88
2022-12-18T04:19:28.286Z,102979.28
2022-12-18T04:21:59.184Z,102986.28
2022-12-18T04:24:30.944Z,102984.38
2022-12-18T04:27:02.129Z,102976.59
2022-12-18T04:29:33.473Z,102986.47
2022-12-18T04:32:08.620Z,102991.81
2022-12-18T04:34:42.694Z,102987.50
2022-12-18T04:37:13.759Z,102983.72
2022-12-18T04:39:45.239Z,102990.84
2022-12-18T04:42:16.209Z,102993.50
2022-12-18T04:44:48.756Z,102993.25
2022-12-18T04:47:22.724Z,102997.16
2022-12-18T04:49:56.532Z,102984.13
2022-12-18T04:52:35.107Z,102987.69
2022-12-18T04:55:07.715Z,102990.13
2022-12-18T04:57:39.266Z,102980.63
2022-12-18T05:00:12.420Z,102981.28
2022-12-18T05:02:47.262Z,102992.03
2022-12-18T05:05:19.594Z,102999.53
2022-12-18T05:07:50.783Z,103009.81
2022-12-18T05:10:23.357Z,103004.38
2022-12-18T05:13:04.887Z,103012.41
2022-12-18T05:15:37.573Z,103009.16
2022-12-18T05:18:12.519Z,103008.34
2022-12-18T05:20:46.083Z,103003.34
2022-12-18T05:23:17.061Z,103018.00
2022-12-18T05:25:56.096Z,103022.38
2022-12-18T05:28:28.673Z,103037.31
2022-12-18T05:31:03.368Z,103034.53
2022-12-18T05:33:50.191Z,103035.34
2022-12-18T05:36:25.536Z,103032.88
2022-12-18T05:38:56.579Z,103039.88
2022-12-18T05:41:30.676Z,103036.16
2022-12-18T05:44:05.295Z,103037.03
2022-12-18T05:46:39.965Z,103032.22
2022-12-18T05:49:14.719Z,103033.22
2022-12-18T05:51:47.219Z,103035.06
2022-12-18T05:54:20.243Z,103039.28
2022-12-18T05:56:51.557Z,103040.66
2022-12-18T05:59:22.469Z,103045.13
2022-12-18T06:01:54.343Z,103039.59
2022-12-18T06:04:32.728Z,103040.69
2022-12-18T06:07:04.208Z,103050.75
2022-12-18T06:09:37.435Z,103056.22
2022-12-18T06:12:09.918Z,103058.06
2022-12-18T06:14:42.253Z,103059.78
2022-12-18T06:17:13.920Z,103058.59
2022-12-18T06:19:48.463Z,103065.88
2022-12-18T06:22:21.022Z,103063.25
2022-12-18T06:24:52.756Z,103067.78
2022-12-18T06:27:25.344Z,103066.06
2022-12-18T06:29:59.298Z,103061.63
2022-12-18T06:32:31.140Z,103067.13
2022-12-18T06:35:05.636Z,103073.38
2022-12-18T06:37:38.356Z,103082.13
2022-12-18T06:40:11.608Z,103094.47
2022-12-18T06:42:44.977Z,103093.53
2022-12-18T06:45:20.802Z,103095.09
2022-12-18T06:47:53.393Z,103094.09
2022-12-18T06:50:28.781Z,103097.66
2022-12-18T06:53:03.334Z,103107.34
2022-12-18T06:55:36.367Z,103107.38
2022-12-18T06:58:10.361Z,103116.91
2022-12-18T07:00:45.580Z,103124.75
2022-12-18T07:03:18.730Z,103121.34
2022-12-18T07:05:55.133Z,103105.50
2022-12-18T07:08:26.902Z,103101.50
2022-12-18T07:10:59.592Z,103101.44
2022-12-18T07:13:31.764Z,103104.06
2022-12-18T07:16:18.346Z,103110.22
2022-12-18T07:18:58.517Z,103113.66
2022-12-18T07:21:36.525Z,103109.34
2022-12-18T07:24:12.064Z,103113.63
2022-12-18T07:26:46.294Z,103116.28
2022-12-18T07:29:17.994Z,103109.16
2022-12-18T07:31:52.699Z,103108.28
2022-12-18T07:34:24.906Z,103111.78
2022-12-18T07:36:59.338Z,103117.81
2022-12-18T07:39:33.392Z,103112.72
2022-12-18T07:42:29.549Z,103106.59
2022-12-18T07:45:04.019Z,103119.72
2022-12-18T07:47:39.603Z,103111.59
2022-12-18T07:50:12.652Z,103106.53
2022-12-18T07:52:49.194Z,103109.00
2022-12-18T07:55:22.442Z,103104.50
2022-12-18T07:57:57.784Z,103102.06
2022-12-18T08:00:33.501Z,103101.22
2022-12-18T08:03:07.460Z,103109.84
2022-12-18T08:05:39.456Z,103118.50
2022-12-18T08:08:14.463Z,103116.69
2022-12-18T08:10:45.929Z,103117.66
2022-12-18T08:13:17.908Z,103122.88
2022-12-18T08:15:50.359Z,103112.34
2022-12-18T08:18:22.083Z,103118.34
2022-12-18T08:20:53.995Z,103121.75
2022-12-18T08:23:29.199Z,103126.88
2022-12-18T08:26:03.409Z,103131.28
2022-12-18T08:28:35.196Z,103135.16
2022-12-18T08:31:07.716Z,103136.88
2022-12-18T08:33:41.482Z,103136.06
2022-12-18T08:36:14.354Z,103131.63
2022-12-18T08:38:51.065Z,103140.28
2022-12-18T08:41:23.398Z,103138.66
2022-12-18T08:44:07.153Z,103145.41
2022-12-18T08:46:44.808Z,103149.97
2022-12-18T08:49:16.639Z,103148.09
2022-12-18T08:51:49.205Z,103151.47
2022-12-18T08:54:24.993Z,103152.34
2022-12-18T08:56:57.158Z,103159.31
2022-12-18T08:59:29.036Z,103159.50
2022-12-18T09:02:02.425Z,103158.59
2022-12-18T09:04:34.418Z,103160.91
2022-12-18T09:07:05.814Z,103166.38
2022-12-18T09:09:39.992Z,103175.19
2022-12-18T09:12:11.566Z,103174.38
2022-12-18T09:14:44.122Z,103173.47
2022-12-18T09:17:16.186Z,103169.97
2022-12-18T09:19:48.123Z,103183.97
2022-12-18T09:22:20.303Z,103178.63
2022-12-18T09:24:55.981Z,103185.41
2022-12-18T09:27:28.114Z,103180.38
2022-12-18T09:29:59.922Z,103177.72
2022-12-18T09:32:32.115Z,103180.56
2022-12-18T09:35:04.015Z,103182.16
2022-12-18T09:37:36.135Z,103176.75
2022-12-18T09:40:17.404Z,103171.31
2022-12-18T09:42:59.829Z,103161.44
2022-12-18T09:45:34.213Z,103165.88
2022-12-18T09:48:08.365Z,103165.16
2022-12-18T09:50:43.512Z,103160.16
2022-12-18T09:53:21.484Z,103148.19
2022-12-18T09:55:57.423Z,103146.38
2022-12-18T09:58:36.063Z,103148.06
2022-12-18T10:01:15.136Z,103135.72
2022-12-18T10:03:47.403Z,103116.50
2022-12-18T10:06:26.622Z,103112.66
2022-12-18T10:09:03.676Z,103099.81
2022-12-18T10:11:47.794Z,103110.00
2022-12-18T10:14:28.812Z,103106.09
2022-12-18T10:17:07.883Z,103108.50
2022-12-18T10:19:50.457Z,103107.25
2022-12-18T10:22:32.932Z,103119.75
2022-12-18T10:25:11.145Z,103115.44
2022-12-18T10:27:45.692Z,103117.94
2022-12-18T10:30:22.404Z,103111.19
2022-12-18T10:32:53.906Z,103107.38
2022-12-18T10:35:29.143Z,103106.81
2022-12-18T10:38:07.787Z,103106.66
2022-12-18T10:40:55.113Z,103103.28
2022-12-18T10:43:33.728Z,103105.84
2022-12-18T10:46:21.685Z,103089.69
2022-12-18T10:48:57.922Z,103097.06
2022-12-18T10:51:34.737Z,103084.06
2022-12-18T10:54:09.122Z,103074.97
2022-12-18T10:56:43.742Z,103074.06
2022-12-18T10:59:20.601Z,103072.34
2022-12-18T11:01:56.264Z,103057.59
2022-12-18T11:04:29.298Z,103066.75
2022-12-18T11:07:05.800Z,103057.66
2022-12-18T11:09:39.542Z,103067.19
2022-12-18T11:12:22.558Z,103076.09
2022-12-18T11:14:59.059Z,103062.81
2022-12-18T11:17:34.821Z,103072.25
2022-12-18T11:20:09.425Z,103069.91
2022-12-18T11:22:43.447Z,103066.97
2022-12-18T11:25:33.442Z,103067.56
2022-12-18T11:28:08.946Z,103080.63
2022-12-18T11:30:42.917Z,103075.94
2022-12-18T11:33:20.467Z,103071.16
2022-12-18T11:35:57.248Z,103067.75
2022-12-18T11:38:34.980Z,103057.09
2022-12-18T11:41:13.381Z,103065.81
2022-12-18T11:43:54.095Z,103059.13
2022-12-18T11:46:41.436Z,103074.22
2022-12-18T11:49:18.504Z,103086.06
2022-12-18T11:51:57.653Z,103084.41
2022-12-18T11:54:29.215Z,103081.78
2022-12-18T11:57:08.830Z,103091.38
2022-12-18T11:59:52.285Z,103101.03
2022-12-18T12:02:42.147Z,103111.94
2022-12-18T12:05:29.575Z,103106.13
2022-12-18T12:08:11.586Z,103103.28
2022-12-18T12:10:56.863Z,103096.38
2022-12-18T12:13:44.611Z,103101.53
2022-12-18T12:16:22.376Z,103105.28
2022-12-18T12:19:14.530Z,103101.03
2022-12-18T12:21:50.547Z,103104.50
2022-12-18T12:24:36.164Z,103095.88
2022-12-18T12:27:17.884Z,103110.97
2022-12-18T12:30:00.504Z,103111.13
2022-12-18T12:32:47.957Z,103114.25
2022-12-18T12:35:33.671Z,103122.31
2022-12-18T12:38:14.725Z,103122.09
2022-12-18T12:40:58.851Z,103125.59
2022-12-18T12:43:46.106Z,103121.63
2022-12-18T12:46:24.408Z,103117.63
2022-12-18T12:49:00.953Z,103116.38
2022-12-18T12:51:39.249Z,103111.09
2022-12-18T12:54:28.857Z,103095.63
2022-12-18T12:57:07.232Z,103082.63
2022-12-18T12:59:51.450Z,103071.25
2022-12-18T13:02:33.062Z,103062.84
2022-12-18T13:05:14.009Z,103064.66
2022-12-18T13:07:54.874Z,103057.34
2022-12-18T13:10:37.259Z,103056.47
2022-12-18T13:13:09.223Z,103054.59
2022-12-18T13:15:44.302Z,103072.31
2022-12-18T13:18:23.727Z,103072.75
2022-12-18T13:21:05.981Z,103072.28
2022-12-18T13:23:41.507Z,103077.38
2022-12-18T13:26:37.506Z,103067.94
2022-12-18T13:29:08.398Z,103061.84
2022-12-18T13:32:15.827Z,103060.50
2022-12-18T13:34:50.860Z,103060.06
2022-12-18T13:37:47.339Z,103063.94
2022-12-18T13:40:56.952Z,103051.97
2022-12-18T13:43:35.756Z,103056.06
2022-12-18T13:46:21.986Z,103065.53
2022-12-18T13:48:58.544Z,103051.13
2022-12-18T13:51:35.285Z,103042.56
2022-12-18T13:54:17.692Z,103036.94
2022-12-18T13:56:51.199Z,103055.00
2022-12-18T13:59:28.393Z,103055.78
2022-12-18T14:02:02.869Z,103038.91
2022-12-18T14:04:37.642Z,103032.22
2022-12-18T14:07:12.812Z,103028.75
2022-12-18T14:09:50.700Z,103037.00
2022-12-18T14:12:37.738Z,103032.84
2022-12-18T14:15:31.964Z,103029.38
2022-12-18T14:18:22.965Z,103029.25
2022-12-18T14:20:56.496Z,103033.91
2022-12-18T14:23:33.248Z,103020.66
2022-12-18T14:26:06.454Z,103008.09
2022-12-18T14:28:47.402Z,103008.16
2022-12-18T14:31:25.938Z,103002.50
2022-12-18T14:33:58.596Z,102987.97
2022-12-18T14:36:32.509Z,102976.72
2022-12-18T14:39:03.478Z,102982.97
2022-12-18T14:41:34.867Z,102989.09
2022-12-18T14:44:12.045Z,102990.31
2022-12-18T14:46:50.112Z,102978.69
2022-12-18T14:49:28.815Z,102975.06
2022-12-18T14:52:04.037Z,102977.53
2022-12-18T14:54:38.018Z,102978.19
2022-12-18T14:57:22.670Z,102972.03
2022-12-18T15:00:30.869Z,102972.28
2022-12-18T15:03:38.026Z,102996.78
2022-12-18T15:06:29.983Z,103002.41
2022-12-18T15:09:02.693Z,103014.72
2022-12-18T15:11:40.190Z,103012.59
2022-12-18T15:14:35.933Z,103014.25
2022-12-18T15:17:10.972Z,103021.69
2022-12-18T15:19:48.049Z,102999.34
2022-12-18T15:22:30.711Z,103003.56
2022-12-18T15:25:03.594Z,103004.22
2022-12-18T15:27:51.549Z,103001.28
2022-12-18T15:30:26.713Z,103007.97
2022-12-18T15:33:26.249Z,102998.84
2022-12-18T15:36:05.271Z,103001.50
2022-12-18T15:38:36.973Z,103005.09
2022-12-18T15:41:13.962Z,103016.81
2022-12-18T15:43:44.171Z,103016.88
2022-12-18T15:46:19.765Z,103006.22
2022-12-18T15:48:56.685Z,103017.47
2022-12-18T15:51:38.750Z,103014.88
2022-12-18T15:54:16.895Z,103005.97
2022-12-18T15:57:01.093Z,102999.47
2022-12-18T15:59:33.187Z,103009.13
2022-12-18T16:02:05.474Z,103001.31
2022-12-18T16:04:37.693Z,103009.31
2022-12-18T16:07:17.571Z,103002.78
2022-12-18T16:09:55.493Z,103000.56
2022-12-18T16:12:29.510Z,102991.72
2022-12-18T16:15:01.032Z,102990.09
2022-12-18T16:17:33.011Z,102997.84
2022-12-18T16:20:04.972Z,102983.31
2022-12-18T16:22:39.752Z,102991.66
2022-12-18T16:25:20.312Z,102983.59
2022-12-18T16:27:52.929Z,102991.31
2022-12-18T16:30:31.211Z,102986.00
2022-12-18T16:33:08.242Z,102986.88
2022-12-18T16:35:40.140Z,102980.38
2022-12-18T16:38:17.881Z,102977.00
2022-12-18T16:41:01.524Z,102970.88
2022-12-18T16:43:33.546Z,102960.38
2022-12-18T16:46:05.560Z,102958.59
2022-12-18T16:48:40.067Z,102965.56
2022-12-18T16:51:11.756Z,102965.41
2022-12-18T16:53:46.652Z,102961.16
2022-12-18T16:56:18.034Z,102966.75
2022-12-18T16:58:54.928Z,102970.50
2022-12-18T17:01:27.568Z,102960.63
2022-12-18T17:04:02.260Z,102953.66
2022-12-18T17:06:37.582Z,102963.94
2022-12-18T17:09:17.273Z,102971.19
2022-12-18T17:11:49.187Z,102985.19
2022-12-18T17:14:24.812Z,102979.88
2022-12-18T17:17:20.242Z,102969.78
2022-12-18T17:19:50.962Z,102976.47
2022-12-18T17:22:23.452Z,102971.25
2022-12-18T17:24:59.869Z,102965.69
2022-12-18T17:27:31.536Z,102966.22
2022-12-18T17:30:03.329Z,102952.59
2022-12-18T17:32:35.196Z,102968.19
2022-12-18T17:35:08.492Z,102968.44
2022-12-18T17:37:41.999Z,102971.19
2022-12-18T17:40:16.855Z,102970.31
2022-12-18T17:42:48.560Z,102963.22
2022-12-18T17:45:21.022Z,102964.44
2022-12-18T17:47:58.239Z,102958.78
2022-12-18T17:50:32.725Z,102959.22
2022-12-18T17:53:05.836Z,102949.75
2022-12-18T17:55:41.262Z,102950.13
2022-12-18T17:58:13.178Z,102939.53
2022-12-18T18:00:45.440Z,102943.88
2022-12-18T18:03:17.160Z,102925.59
2022-12-18T18:05:50.843Z,102926.69
2022-12-18T18:08:22.571Z,102920.06
2022-12-18T18:11:17.833Z,102926.97
2022-12-18T18:14:01.846Z,102917.63
2022-12-18T18:16:40.565Z,102916.09
2022-12-18T18:19:16.956Z,102921.81
2022-12-18T18:21:51.337Z,102907.81
2022-12-18T18:24:26.407Z,102911.66
2022-12-18T18:27:02.926Z,102906.13
2022-12-18T18:29:35.358Z,102908.75
2022-12-18T18:32:08.338Z,102902.88
2022-12-18T18:34:46.686Z,102891.38
2022-12-18T18:37:20.258Z,102882.84
2022-12-18T18:39:52.093Z,102877.97
2022-12-18T18:42:27.522Z,102880.63
2022-12-18T18:44:59.180Z,102886.03
2022-12-18T18:47:33.288Z,102878.69
2022-12-18T18:50:05.063Z,102875.97
2022-12-18T18:52:36.669Z,102869.84
2022-12-18T18:55:18.576Z,102867.94
2022-12-18T18:58:00.392Z,102854.63
2022-12-18T19:00:33.520Z,102848.16
2022-12-18T19:03:06.135Z,102840.47
2022-12-18T19:05:42.965Z,102847.78
2022-12-18T19:08:18.134Z,102838.75
2022-12-18T19:10:54.568Z,102838.72
2022-12-18T19:13:31.680Z,102833.50
2022-12-18T19:16:10.233Z,102831.75
2022-12-18T19:18:42.520Z,102826.25
2022-12-18T19:21:14.789Z,102829.06
2022-12-18T19:23:47.667Z,102829.84
2022-12-18T19:26:30.167Z,102825.41
2022-12-18T19:29:08.612Z,102815.97
2022-12-18T19:31:42.174Z,102810.72
2022-12-18T19:34:15.323Z,102813.97
2022-12-18T19:36:46.747Z,102826.19
2022-12-18T19:39:21.251Z,102822.47
2022-12-18T19:41:52.716Z,102823.78
2022-12-18T19:44:28.321Z,102816.72
2022-12-18T19:46:59.820Z,102815.34
2022-12-18T19:49:32.971Z,102817.16
2022-12-18T19:52:05.648Z,102813.97
2022-12-18T19:54:37.407Z,102814.00
2022-12-18T19:57:11.804Z,102822.03
2022-12-18T19:59:46.625Z,102812.88
2022-12-18T20:02:21.912Z,102823.63
2022-12-18T20:04:54.989Z,102815.94
2022-12-18T20:07:31.250Z,102823.47
2022-12-18T20:10:08.937Z,102818.38
2022-12-18T20:12:42.422Z,102812.28
2022-12-18T20:15:17.420Z,102799.78
2022-12-18T20:17:48.943Z,102800.88
2022-12-18T20:20:23.040Z,102788.72
2022-12-18T20:22:54.629Z,102776.72
2022-12-18T20:25:26.781Z,102764.19
2022-12-18T20:27:58.329Z,102766.59
2022-12-18T20:30:32.718Z,102778.50
2022-12-18T20:33:04.191Z,102788.13
2022-12-18T20:35:36.567Z,102785.75
2022-12-18T20:38:08.544Z,102773.88
2022-12-18T20:40:43.647Z,102769.78
2022-12-18T20:43:17.318Z,102775.00
2022-12-18T20:45:52.097Z,102768.88
2022-12-18T20:48:26.641Z,102753.66
2022-12-18T20:51:03.887Z,102756.25
2022-12-18T20:53:36.939Z,102769.97
2022-12-18T20:56:16.525Z,102769.03
2022-12-18T20:58:53.975Z,102756.28
2022-12-18T21:01:31.511Z,102763.97
2022-12-18T21:04:03.339Z,102742.47
2022-12-18T21:06:38.917Z,102751.50
2022-12-18T21:09:10.457Z,102762.41
2022-12-18T21:11:54.334Z,102755.50
2022-12-18T21:14:28.086Z,102761.47
2022-12-18T21:17:03.962Z,102742.72
2022-12-18T21:19:36.064Z,102742.06
2022-12-18T21:22:08.128Z,102744.50
2022-12-18T21:24:40.029Z,102741.53
2022-12-18T21:27:12.214Z,102727.44
2022-12-18T21:29:48.272Z,102733.25
2022-12-18T21:32:26.155Z,102737.88
2022-12-18T21:35:07.950Z,102736.34
2022-12-18T21:37:39.906Z,102746.31
2022-12-18T21:40:13.314Z,102743.47
2022-12-18T21:43:00.059Z,102742.41
2022-12-18T21:45:35.260Z,102743.75
2022-12-18T21:48:10.157Z,102756.00
2022-12-18T21:50:41.670Z,102748.34
2022-12-18T21:53:13.409Z,102744.63
2022-12-18T21:55:45.303Z,102755.13
2022-12-18T21:58:17.512Z,102746.81
2022-12-18T22:00:48.962Z,102744.06
2022-12-18T22:03:28.956Z,102747.50
2022-12-18T22:06:09.323Z,102746.38
2022-12-18T22:08:43.717Z,102737.41
2022-12-18T22:11:16.007Z,102735.84
2022-12-18T22:13:52.538Z,102731.00
2022-12-18T22:16:24.220Z,102729.38
2022-12-18T22:18:59.062Z,102712.81
2022-12-18T22:21:32.907Z,102707.28
2022-12-18T22:24:06.643Z,102702.16
2022-12-18T22:26:40.553Z,102696.06
2022-12-18T22:29:33.486Z,102701.19
2022-12-18T22:32:06.657Z,102699.72
2022-12-18T22:34:41.679Z,102698.22
2022-12-18T22:37:15.045Z,102693.59
2022-12-18T22:39:55.966Z,102691.47
2022-12-18T22:42:35.740Z,102663.38
2022-12-18T22:45:08.394Z,102667.91
2022-12-18T22:47:45.314Z,102667.94
2022-12-18T22:50:19.912Z,102664.72
2022-12-18T22:52:57.560Z,102659.72
2022-12-18T22:55:31.986Z,102644.56
2022-12-18T22:58:04.221Z,102641.22
2022-12-18T23:00:36.560Z,102634.91
2022-12-18T23:03:10.230Z,102638.19
2022-12-18T23:05:45.582Z,102629.38
2022-12-18T23:08:17.882Z,102627.72
2022-12-18T23:10:50.154Z,102612.41
2022-12-18T23:13:22.093Z,102615.38
2022-12-18T23:15:54.493Z,102606.66
2022-12-18T23:18:26.441Z,102613.09
2022-12-18T23:21:01.823Z,102610.97
2022-12-18T23:23:37.723Z,102595.81
2022-12-18T23:26:12.901Z,102593.81
2022-12-18T23:28:45.344Z,102574.63
2022-12-18T23:31:19.783Z,102588.06
2022-12-18T23:33:52.382Z,102588.28
2022-12-18T23:36:28.653Z,102579.88
2022-12-18T23:39:04.542Z,102577.91
2022-12-18T23:41:37.111Z,102581.47
2022-12-18T23:44:09.245Z,102577.84
2022-12-18T23:46:41.693Z,102569.50
2022-12-18T23:49:13.992Z,102563.56
2022-12-18T23:51:49.004Z,102545.97
2022-12-18T23:54:22.642Z,102552.97
2022-12-18T23:57:05.870Z,102549.06
2022-12-18T23:59:37.953Z,102537.19
